Etusivu
METAR-TAF:

METAR-TAF

Lentoasemat :

Bemidji, Minnesota, Yhdysvallat

Leveyspiiri: 47-30N, Pituuspiiri: 094-56W, korkeus merenpinnasta: 423 m

Tämänhetkinen sää

Tämä raportti tehtiin 15 minuuttia sitten, kello 04.55 UTC
Tuuli 3 kn etelästä/lounaasta
Lämpötila 6°C
Kosteus 65%
Ilmanpaine 1019 hPa
Näkyvyys: 16.1 km
Hajanaisia pilviä 8000 ft:n korkeudessa

METAR: KBJI 230455Z AUTO 21003KT 10SM SCT080 06/00 A3009 RMK AO2 T00600003

Aika: 00:10 (05:10 UTC)

Sääennuste

Tämä raportti tehtiin 5 tuntia ja 50 minuuttia sitten, kello 23.20 UTC
Ennuste voimassa 23. päivästä klo 00 UTC - 23. päivään klo 24 UTC
Tuuli 4 kn eri suunnista
Näkyvyys: 10 km
Muutamia pilviä 8000 ft:n korkeudessa
From 23. päivästä klo 0300 UTC
Tuuli 3 kn eri suunnista
Näkyvyys: 10 km
selkeää
From 23. päivästä klo 1700 UTC
Tuuli 6 kn lounaasta
Näkyvyys: 10 km
Muutamia pilviä 25000 ft:n korkeudessa

TAF: KBJI 222320Z 2300/2324 VRB04KT P6SM FEW080 FM230300 VRB03KT P6SM SKC FM231700 23006KT P6SM FEW250

Säähavainnot ja -ennusteet yli 4000 lentoasemalta (METAR- ja TAF-raportit).

Käytössä olevat sääasemat on merkitty karttaan keltaisilla ja punaisilla pisteillä.

Aseta hiiri pisteen päälle nähdäksesi sääaseman nimen.

Klikkaa sitten nähdäksesi säähavainnot ja -ennusteet.

Kartan vaihtaminen: klikkaa mustalla rastilla varustettuja vihreitä pisteitä, niin voit zoomata sisään; viivalla varustettua vihreää pistettä, niin voit zoomata ulos tai vihreitä nuolia, niin pääset viereisille kartoille.


METAR-TAF: